createdAt,value
2023-05-09T00:01:11.126Z,32.03
2023-05-09T00:03:40.209Z,29.67
2023-05-09T00:06:09.109Z,28.87
2023-05-09T00:08:38.289Z,27.17
2023-05-09T00:11:06.990Z,27.57
2023-05-09T00:13:35.963Z,28.97
2023-05-09T00:16:06.949Z,27.97
2023-05-09T00:18:36.687Z,27.83
2023-05-09T00:21:05.815Z,28.33
2023-05-09T00:23:34.147Z,27.87
2023-05-09T00:26:02.689Z,29.93
2023-05-09T00:28:31.062Z,29.23
2023-05-09T00:30:59.561Z,30.13
2023-05-09T00:33:29.256Z,33.53
2023-05-09T00:35:58.062Z,32.27
2023-05-09T00:38:26.801Z,31.07
2023-05-09T00:40:55.443Z,33.17
2023-05-09T00:43:24.784Z,32.00
2023-05-09T00:45:53.978Z,33.40
2023-05-09T00:48:24.317Z,31.23
2023-05-09T00:50:54.048Z,31.00
2023-05-09T00:53:23.484Z,29.80
2023-05-09T00:55:51.916Z,30.77
2023-05-09T00:58:20.966Z,31.57
2023-05-09T01:00:49.297Z,30.47
2023-05-09T01:03:18.474Z,30.93
2023-05-09T01:05:57.872Z,29.63
2023-05-09T01:08:46.865Z,30.63
2023-05-09T01:11:25.264Z,31.57
2023-05-09T01:14:07.595Z,32.10
2023-05-09T01:16:44.745Z,31.50
2023-05-09T01:19:41.840Z,32.87
2023-05-09T01:22:19.367Z,31.73
2023-05-09T01:25:37.038Z,32.87
2023-05-09T01:28:15.388Z,32.70
2023-05-09T01:30:48.025Z,31.43
2023-05-09T01:33:20.806Z,28.87
2023-05-09T01:35:55.059Z,33.73
2023-05-09T01:38:27.366Z,33.87
2023-05-09T01:40:58.444Z,30.67
2023-05-09T01:43:30.147Z,33.97
2023-05-09T01:46:01.175Z,31.27
2023-05-09T01:48:31.946Z,32.50
2023-05-09T01:51:02.094Z,29.43
2023-05-09T01:53:31.400Z,27.47
2023-05-09T01:56:00.991Z,23.43
2023-05-09T01:58:30.208Z,26.33
2023-05-09T02:01:00.825Z,23.07
2023-05-09T02:03:30.472Z,23.73
2023-05-09T02:05:59.217Z,24.93
2023-05-09T02:08:28.702Z,26.47
2023-05-09T02:10:57.485Z,23.80
2023-05-09T02:13:26.539Z,24.23
2023-05-09T02:15:55.997Z,22.00
2023-05-09T02:18:26.028Z,20.90
2023-05-09T02:20:54.895Z,20.13
2023-05-09T02:23:23.316Z,17.17
2023-05-09T02:25:54.624Z,20.00
2023-05-09T02:28:24.931Z,19.90
2023-05-09T02:30:54.894Z,18.70
2023-05-09T02:33:26.089Z,17.77
2023-05-09T02:35:55.637Z,18.03
2023-05-09T02:38:25.021Z,16.90
2023-05-09T02:40:53.719Z,15.73
2023-05-09T02:43:22.373Z,15.97
2023-05-09T02:45:51.066Z,14.50
2023-05-09T02:48:19.918Z,16.03
2023-05-09T02:50:49.929Z,15.67
2023-05-09T02:53:18.294Z,14.87
2023-05-09T02:55:47.979Z,14.63
2023-05-09T02:58:16.587Z,14.73
2023-05-09T03:00:44.920Z,14.70
2023-05-09T03:03:13.857Z,14.83
2023-05-09T03:05:42.403Z,16.30
2023-05-09T03:08:12.228Z,15.53
2023-05-09T03:10:40.872Z,14.80
2023-05-09T03:13:10.527Z,13.40
2023-05-09T03:15:38.955Z,17.10
2023-05-09T03:18:07.698Z,16.57
2023-05-09T03:20:36.203Z,15.73
2023-05-09T03:23:04.650Z,15.63
2023-05-09T03:25:34.749Z,16.20
2023-05-09T03:28:03.134Z,16.87
2023-05-09T03:30:31.626Z,15.43
2023-05-09T03:33:00.224Z,16.77
2023-05-09T03:35:28.800Z,16.03
2023-05-09T03:37:57.362Z,15.77
2023-05-09T03:40:26.160Z,16.77
2023-05-09T03:42:56.064Z,16.27
2023-05-09T03:45:24.965Z,16.07
2023-05-09T03:47:53.715Z,17.20
2023-05-09T03:50:22.654Z,18.33
2023-05-09T03:52:52.086Z,18.17
2023-05-09T03:55:21.020Z,16.90
2023-05-09T03:57:50.974Z,17.57
2023-05-09T04:00:22.506Z,18.13
2023-05-09T04:02:51.268Z,18.43
2023-05-09T04:05:19.954Z,18.07
2023-05-09T04:07:48.557Z,19.27
2023-05-09T04:10:17.090Z,18.33
2023-05-09T04:12:48.596Z,20.67
2023-05-09T04:15:17.414Z,20.73
2023-05-09T04:17:47.478Z,20.73
2023-05-09T04:20:16.129Z,19.53
2023-05-09T04:22:46.715Z,21.17
2023-05-09T04:25:16.161Z,21.13
2023-05-09T04:27:44.843Z,20.40
2023-05-09T04:30:14.196Z,19.03
2023-05-09T04:32:45.937Z,19.37
2023-05-09T04:35:18.900Z,19.13
2023-05-09T04:37:49.174Z,17.03
2023-05-09T04:40:17.727Z,17.37
2023-05-09T04:42:46.340Z,19.27
2023-05-09T04:45:15.791Z,19.00
2023-05-09T04:47:45.080Z,19.23
2023-05-09T04:50:15.378Z,17.33
2023-05-09T04:52:43.921Z,17.80
2023-05-09T04:55:13.318Z,18.97
2023-05-09T04:57:41.919Z,18.30
2023-05-09T05:00:14.946Z,18.57
2023-05-09T05:02:43.672Z,18.03
2023-05-09T05:05:13.365Z,18.73
2023-05-09T05:07:43.254Z,19.90
2023-05-09T05:10:13.586Z,18.80
2023-05-09T05:12:42.115Z,18.00
2023-05-09T05:15:12.244Z,18.97
2023-05-09T05:17:41.163Z,16.83
2023-05-09T05:20:10.742Z,17.17
2023-05-09T05:22:39.432Z,17.50
2023-05-09T05:25:10.525Z,18.23
2023-05-09T05:27:39.032Z,19.10
2023-05-09T05:30:09.532Z,17.80
2023-05-09T05:32:38.075Z,19.57
2023-05-09T05:35:08.322Z,17.83
2023-05-09T05:37:36.668Z,17.50
2023-05-09T05:40:06.579Z,18.67
2023-05-09T05:42:37.030Z,19.23
2023-05-09T05:45:06.598Z,18.97
2023-05-09T05:47:36.351Z,19.20
2023-05-09T05:50:09.097Z,20.40
2023-05-09T05:52:37.603Z,22.57
2023-05-09T05:55:07.607Z,24.30
2023-05-09T05:57:37.834Z,22.67
2023-05-09T06:00:09.961Z,24.73
2023-05-09T06:02:39.720Z,21.33
2023-05-09T06:05:09.560Z,23.20
2023-05-09T06:07:38.041Z,21.37
2023-05-09T06:10:08.226Z,21.03
2023-05-09T06:12:38.140Z,21.37
2023-05-09T06:15:08.517Z,20.83
2023-05-09T06:17:37.125Z,19.77
2023-05-09T06:20:07.034Z,21.23
2023-05-09T06:22:35.712Z,20.30
2023-05-09T06:25:04.669Z,21.07
2023-05-09T06:27:33.179Z,21.77
2023-05-09T06:30:11.221Z,21.27
2023-05-09T06:32:46.708Z,21.13
2023-05-09T06:35:16.063Z,23.83
2023-05-09T06:37:45.507Z,23.10
2023-05-09T06:40:15.599Z,24.10
2023-05-09T06:42:43.945Z,25.03
2023-05-09T06:45:14.850Z,22.23
2023-05-09T06:47:43.475Z,23.87
2023-05-09T06:50:12.293Z,25.00
2023-05-09T06:52:40.766Z,22.77
2023-05-09T06:55:11.806Z,23.30
2023-05-09T06:57:40.694Z,23.17
2023-05-09T07:00:10.805Z,22.93
2023-05-09T07:02:42.300Z,23.20
2023-05-09T07:05:11.754Z,23.67
2023-05-09T07:07:40.816Z,23.27
2023-05-09T07:10:12.471Z,23.20
2023-05-09T07:12:41.895Z,23.13
2023-05-09T07:15:12.222Z,23.13
2023-05-09T07:17:42.093Z,21.87
2023-05-09T07:20:11.227Z,20.80
2023-05-09T07:22:39.584Z,20.47
2023-05-09T07:25:10.226Z,20.10
2023-05-09T07:27:38.952Z,19.93
2023-05-09T07:30:09.356Z,22.03
2023-05-09T07:32:37.778Z,19.87
2023-05-09T07:35:08.310Z,21.67
2023-05-09T07:37:36.837Z,22.53
2023-05-09T07:40:06.942Z,21.83
2023-05-09T07:42:35.263Z,23.17
2023-05-09T07:45:06.116Z,21.37
2023-05-09T07:47:34.611Z,24.43
2023-05-09T07:50:03.091Z,26.33
2023-05-09T07:52:32.913Z,26.80
2023-05-09T07:55:01.442Z,26.40
2023-05-09T07:57:29.862Z,26.03
2023-05-09T07:59:58.858Z,24.90
2023-05-09T08:02:27.622Z,25.03
2023-05-09T08:04:56.172Z,27.67
2023-05-09T08:07:24.813Z,28.37
2023-05-09T08:09:54.951Z,27.77
2023-05-09T08:12:23.446Z,30.17
2023-05-09T08:14:52.374Z,29.07
2023-05-09T08:17:22.086Z,30.10
2023-05-09T08:19:50.620Z,30.67
2023-05-09T08:22:19.994Z,28.40
2023-05-09T08:24:48.879Z,27.20
2023-05-09T08:27:18.722Z,31.57
2023-05-09T08:29:47.169Z,34.40
2023-05-09T08:32:15.616Z,32.97
2023-05-09T08:34:43.923Z,30.37
2023-05-09T08:37:15.214Z,31.40
2023-05-09T08:39:44.599Z,32.27
2023-05-09T08:42:15.989Z,31.07
2023-05-09T08:44:45.821Z,32.83
2023-05-09T08:47:15.174Z,31.30
2023-05-09T08:49:44.211Z,33.07
2023-05-09T08:52:13.764Z,32.30
2023-05-09T08:54:42.965Z,32.87
2023-05-09T08:57:11.553Z,30.67
2023-05-09T08:59:45.726Z,31.03
2023-05-09T09:02:15.866Z,34.83
2023-05-09T09:04:45.183Z,34.80
2023-05-09T09:07:15.191Z,33.47
2023-05-09T09:09:48.885Z,34.53
2023-05-09T09:12:18.096Z,34.60
2023-05-09T09:14:55.286Z,35.07
2023-05-09T09:17:29.192Z,34.17
2023-05-09T09:20:03.209Z,34.47
2023-05-09T09:22:34.867Z,33.67
2023-05-09T09:25:04.161Z,34.53
2023-05-09T09:27:33.661Z,33.63
2023-05-09T09:30:11.361Z,34.53
2023-05-09T09:32:40.509Z,33.23
2023-05-09T09:35:11.949Z,33.30
2023-05-09T09:37:43.788Z,32.30
2023-05-09T09:40:14.517Z,29.90
2023-05-09T09:42:44.630Z,30.97
2023-05-09T09:45:16.572Z,29.23
2023-05-09T09:47:47.148Z,31.20
2023-05-09T09:50:18.097Z,31.57
2023-05-09T09:52:52.399Z,29.40
2023-05-09T09:55:22.144Z,30.20
2023-05-09T09:57:52.047Z,28.67
2023-05-09T10:00:28.674Z,29.20
2023-05-09T10:02:59.462Z,29.47
2023-05-09T10:05:30.001Z,29.75
2023-05-09T10:08:00.425Z,32.07
2023-05-09T10:10:30.693Z,31.58
2023-05-09T10:13:03.797Z,31.02
2023-05-09T10:15:49.132Z,31.30
2023-05-09T10:18:27.488Z,30.00
2023-05-09T10:21:00.850Z,32.92
2023-05-09T10:23:31.902Z,30.02
2023-05-09T10:26:08.162Z,32.20
2023-05-09T10:28:40.271Z,30.93
2023-05-09T10:31:17.346Z,30.58
2023-05-09T10:33:51.089Z,31.53
2023-05-09T10:36:22.738Z,33.73
2023-05-09T10:38:52.339Z,32.87
2023-05-09T10:41:23.914Z,30.40
2023-05-09T10:43:52.850Z,31.07
2023-05-09T10:46:25.295Z,31.57
2023-05-09T10:48:54.111Z,30.37
2023-05-09T10:51:25.175Z,31.57
2023-05-09T10:53:56.011Z,31.40
2023-05-09T10:56:27.533Z,32.13
2023-05-09T10:58:56.435Z,32.30
2023-05-09T11:01:35.544Z,32.90
2023-05-09T11:04:11.218Z,34.38
2023-05-09T11:06:51.564Z,34.93
2023-05-09T11:09:38.215Z,34.20
2023-05-09T11:12:12.385Z,34.93
2023-05-09T11:14:44.618Z,36.33
2023-05-09T11:17:16.144Z,35.47
2023-05-09T11:20:03.660Z,36.57
2023-05-09T11:22:34.655Z,34.90
2023-05-09T11:25:09.331Z,36.40
2023-05-09T11:27:47.133Z,37.47
2023-05-09T11:30:19.139Z,36.97
2023-05-09T11:32:53.415Z,35.70
2023-05-09T11:35:24.468Z,36.53
2023-05-09T11:38:00.379Z,38.03
2023-05-09T11:40:31.056Z,37.07
2023-05-09T11:43:01.593Z,37.10
2023-05-09T11:45:33.793Z,37.33
2023-05-09T11:48:10.262Z,35.83
2023-05-09T11:50:38.780Z,37.87
2023-05-09T11:53:08.536Z,35.57
2023-05-09T11:55:39.562Z,37.80
2023-05-09T11:58:09.722Z,36.77
2023-05-09T12:00:45.750Z,37.00
2023-05-09T12:03:15.816Z,37.50
2023-05-09T12:05:44.654Z,35.55
2023-05-09T12:08:15.554Z,35.40
2023-05-09T12:10:43.871Z,36.25
2023-05-09T12:13:12.520Z,36.13
2023-05-09T12:15:43.179Z,36.92
2023-05-09T12:18:11.764Z,33.13
2023-05-09T12:20:47.606Z,29.40
2023-05-09T12:23:16.693Z,37.53
2023-05-09T12:25:55.204Z,38.17
2023-05-09T12:28:26.321Z,39.00
2023-05-09T12:30:56.339Z,34.30
2023-05-09T12:33:25.138Z,35.30
2023-05-09T12:36:07.010Z,35.23
2023-05-09T12:38:35.455Z,37.70
2023-05-09T12:41:05.738Z,38.40
2023-05-09T12:43:35.659Z,39.13
2023-05-09T12:46:05.420Z,37.00
2023-05-09T12:48:40.105Z,33.43
2023-05-09T12:51:10.065Z,34.43
2023-05-09T12:53:43.312Z,32.47
2023-05-09T12:56:16.804Z,29.70
2023-05-09T12:58:51.985Z,27.97
2023-05-09T13:01:25.791Z,24.83
2023-05-09T13:04:01.331Z,25.57
2023-05-09T13:06:31.379Z,27.23
2023-05-09T13:09:01.782Z,27.37
2023-05-09T13:11:31.064Z,28.00
2023-05-09T13:14:00.261Z,27.27
2023-05-09T13:16:28.933Z,28.80
2023-05-09T13:18:58.004Z,35.17
2023-05-09T13:21:26.636Z,36.87
2023-05-09T13:23:56.380Z,38.90
2023-05-09T13:26:25.130Z,40.90
2023-05-09T13:28:53.446Z,37.40
2023-05-09T13:31:22.838Z,38.23
2023-05-09T13:33:52.109Z,39.50
2023-05-09T13:36:21.506Z,43.40
2023-05-09T13:38:50.389Z,40.73
2023-05-09T13:41:24.335Z,45.17
2023-05-09T13:43:54.201Z,44.33
2023-05-09T13:46:23.028Z,43.37
2023-05-09T13:48:51.780Z,43.13
2023-05-09T13:51:21.984Z,45.47
2023-05-09T13:53:50.481Z,46.40
2023-05-09T13:56:21.347Z,43.90
2023-05-09T13:58:51.016Z,43.47
2023-05-09T14:01:20.474Z,38.10
2023-05-09T14:03:49.335Z,39.83
2023-05-09T14:06:17.930Z,36.83
2023-05-09T14:08:46.274Z,40.67
2023-05-09T14:11:14.757Z,42.10
2023-05-09T14:13:44.856Z,41.10
2023-05-09T14:16:13.883Z,45.43
2023-05-09T14:21:49.020Z,42.33
2023-05-09T14:24:17.957Z,39.90
2023-05-09T14:26:46.702Z,42.30
2023-05-09T14:29:17.653Z,41.07
2023-05-09T14:31:46.264Z,38.37
2023-05-09T14:34:14.954Z,42.80
2023-05-09T14:36:43.482Z,43.30
2023-05-09T14:39:12.038Z,39.60
2023-05-09T14:41:40.555Z,41.57
2023-05-09T14:44:09.017Z,40.40
2023-05-09T14:46:39.423Z,42.00
2023-05-09T14:49:09.083Z,41.60
2023-05-09T14:51:37.851Z,42.67
2023-05-09T14:54:06.663Z,42.10
2023-05-09T14:56:35.425Z,42.53
2023-05-09T14:59:04.352Z,39.07
2023-05-09T15:01:33.145Z,40.37
2023-05-09T15:04:02.889Z,41.00
2023-05-09T15:06:31.261Z,39.07
2023-05-09T15:08:59.689Z,45.90
2023-05-09T15:11:28.737Z,41.50
2023-05-09T15:13:59.324Z,38.17
2023-05-09T15:16:28.469Z,36.67
2023-05-09T15:18:59.807Z,35.17
2023-05-09T15:21:35.670Z,34.13
2023-05-09T15:24:04.043Z,33.80
2023-05-09T15:26:32.534Z,31.20
2023-05-09T15:29:01.145Z,26.73
2023-05-09T15:31:34.391Z,23.73
2023-05-09T15:34:02.717Z,22.80
2023-05-09T15:36:34.855Z,22.03
2023-05-09T15:39:05.053Z,23.43
2023-05-09T15:41:33.356Z,22.00
2023-05-09T15:44:01.741Z,23.27
2023-05-09T15:46:30.374Z,25.80
2023-05-09T15:48:59.273Z,25.13
2023-05-09T15:51:30.090Z,24.70
2023-05-09T15:54:00.005Z,24.77
2023-05-09T15:56:28.588Z,23.90
2023-05-09T15:58:57.581Z,20.10
2023-05-09T16:01:26.408Z,22.27
2023-05-09T16:03:55.342Z,20.90
2023-05-09T16:06:24.553Z,22.07
2023-05-09T16:08:53.807Z,22.27
2023-05-09T16:11:23.577Z,22.37
2023-05-09T16:13:52.449Z,18.60
2023-05-09T16:16:21.439Z,18.40
2023-05-09T16:18:50.228Z,17.10
2023-05-09T16:21:19.928Z,17.80
2023-05-09T16:23:51.016Z,17.30
2023-05-09T16:26:20.544Z,17.30
2023-05-09T16:28:51.695Z,19.33
2023-05-09T16:31:21.025Z,17.53
2023-05-09T16:33:49.498Z,17.57
2023-05-09T16:36:17.823Z,15.07
2023-05-09T16:38:46.194Z,14.03
2023-05-09T16:41:17.190Z,13.13
2023-05-09T16:43:46.013Z,13.57
2023-05-09T16:46:16.048Z,14.40
2023-05-09T16:48:44.416Z,14.07
2023-05-09T16:51:12.725Z,14.53
2023-05-09T16:53:41.238Z,14.37
2023-05-09T16:56:11.062Z,14.83
2023-05-09T16:58:40.677Z,15.23
2023-05-09T17:01:09.102Z,14.33
2023-05-09T17:03:38.903Z,13.50
2023-05-09T17:06:08.077Z,14.53
2023-05-09T17:08:36.340Z,13.90
2023-05-09T17:11:05.488Z,14.10
2023-05-09T17:13:33.780Z,11.77
2023-05-09T17:16:02.132Z,12.57
2023-05-09T17:18:37.780Z,11.67
2023-05-09T17:21:08.906Z,10.07
2023-05-09T17:23:37.470Z,8.97
2023-05-09T17:26:05.910Z,8.67
2023-05-09T17:28:34.338Z,8.23
2023-05-09T17:31:03.554Z,8.50
2023-05-09T17:33:31.886Z,7.60
2023-05-09T17:36:00.882Z,7.90
2023-05-09T17:38:30.788Z,7.57
2023-05-09T17:40:59.133Z,8.43
2023-05-09T17:43:28.502Z,7.83
2023-05-09T17:45:57.420Z,8.30
2023-05-09T17:48:26.285Z,9.30
2023-05-09T17:50:54.505Z,9.03
2023-05-09T17:53:22.958Z,10.90
2023-05-09T17:55:52.888Z,11.67
2023-05-09T17:58:23.977Z,11.63
2023-05-09T18:00:55.400Z,12.70
2023-05-09T18:03:23.850Z,13.90
2023-05-09T18:05:52.896Z,14.93
2023-05-09T18:08:22.448Z,15.83
2023-05-09T18:10:54.603Z,17.67
2023-05-09T18:13:25.317Z,16.57
2023-05-09T18:15:55.285Z,16.90
2023-05-09T18:18:23.679Z,17.73
2023-05-09T18:20:52.307Z,18.13
2023-05-09T18:23:21.862Z,17.70
2023-05-09T18:25:50.349Z,18.27
2023-05-09T18:28:29.087Z,16.80
2023-05-09T18:30:59.820Z,17.53
2023-05-09T18:33:29.848Z,18.00
2023-05-09T18:35:58.413Z,18.50
2023-05-09T18:38:27.976Z,18.90
2023-05-09T18:40:56.617Z,19.27
2023-05-09T18:43:27.319Z,18.43
2023-05-09T18:45:57.177Z,20.33
2023-05-09T18:48:26.294Z,19.73
2023-05-09T18:50:54.668Z,19.83
2023-05-09T18:53:26.411Z,19.77
2023-05-09T18:55:56.442Z,20.53
2023-05-09T18:58:26.674Z,16.93
2023-05-09T19:00:56.888Z,16.93
2023-05-09T19:03:27.286Z,17.67
2023-05-09T19:05:56.674Z,17.20
2023-05-09T19:08:26.324Z,13.80
2023-05-09T19:10:54.889Z,10.37
2023-05-09T19:13:23.436Z,9.30
2023-05-09T19:15:54.198Z,8.17
2023-05-09T19:18:23.186Z,8.73
2023-05-09T19:20:51.651Z,8.53
2023-05-09T19:23:20.463Z,8.80
2023-05-09T19:25:49.969Z,8.27
2023-05-09T19:28:18.937Z,8.53
2023-05-09T19:30:49.371Z,8.83
2023-05-09T19:33:19.699Z,8.47
2023-05-09T19:35:48.138Z,8.07
2023-05-09T19:38:16.540Z,8.40
2023-05-09T19:40:44.920Z,8.30
2023-05-09T19:43:14.050Z,8.03
2023-05-09T19:45:42.565Z,7.00
2023-05-09T19:48:15.153Z,6.70
2023-05-09T19:50:46.652Z,6.53
2023-05-09T19:53:15.203Z,6.50
2023-05-09T19:55:46.899Z,6.93
2023-05-09T19:58:17.725Z,7.50
2023-05-09T20:00:46.861Z,7.30
2023-05-09T20:03:15.369Z,7.73
2023-05-09T20:05:45.327Z,7.77
2023-05-09T20:08:14.011Z,8.10
2023-05-09T20:10:42.859Z,8.47
2023-05-09T20:13:11.784Z,8.53
2023-05-09T20:15:40.373Z,8.63
2023-05-09T20:18:23.881Z,9.93
2023-05-09T20:20:55.233Z,9.23
2023-05-09T20:23:24.556Z,10.60
2023-05-09T20:25:53.507Z,10.70
2023-05-09T20:28:22.622Z,9.83
2023-05-09T20:30:51.813Z,9.53
2023-05-09T20:33:27.757Z,8.73
2023-05-09T20:35:58.258Z,8.57
2023-05-09T20:38:27.816Z,8.70
2023-05-09T20:40:56.660Z,8.47
2023-05-09T20:43:27.617Z,7.80
2023-05-09T20:45:56.841Z,9.60
2023-05-09T20:48:42.641Z,8.33
2023-05-09T20:51:12.675Z,8.20
2023-05-09T20:53:41.099Z,7.80
2023-05-09T20:56:09.578Z,7.73
2023-05-09T20:58:38.054Z,8.13
2023-05-09T21:01:06.588Z,7.90
2023-05-09T21:03:35.195Z,8.30
2023-05-09T21:06:03.730Z,8.40
2023-05-09T21:08:34.230Z,7.10
2023-05-09T21:11:02.817Z,7.13
2023-05-09T21:13:31.547Z,6.93
2023-05-09T21:16:00.105Z,7.10
2023-05-09T21:18:29.120Z,6.40
2023-05-09T21:20:58.590Z,6.43
2023-05-09T21:23:27.650Z,6.43
2023-05-09T21:25:59.412Z,7.30
2023-05-09T21:28:28.784Z,7.20
2023-05-09T21:30:59.960Z,7.20
2023-05-09T21:33:29.121Z,7.60
2023-05-09T21:35:59.278Z,7.50
2023-05-09T21:38:28.120Z,7.73
2023-05-09T21:40:58.510Z,8.07
2023-05-09T21:43:29.064Z,7.90
2023-05-09T21:45:58.283Z,9.03
2023-05-09T21:48:27.722Z,9.63
2023-05-09T21:50:56.839Z,9.43
2023-05-09T21:53:25.662Z,10.37
2023-05-09T21:55:54.061Z,8.93
2023-05-09T21:58:23.786Z,10.17
2023-05-09T22:00:52.050Z,10.53
2023-05-09T22:03:20.483Z,10.37
2023-05-09T22:05:48.912Z,11.20
2023-05-09T22:08:17.175Z,11.13
2023-05-09T22:10:45.643Z,10.07
2023-05-09T22:13:13.975Z,10.97
2023-05-09T22:15:43.816Z,10.77
2023-05-09T22:18:12.405Z,10.73
2023-05-09T22:20:40.816Z,10.00
2023-05-09T22:23:09.151Z,10.60
2023-05-09T22:25:37.904Z,11.17
2023-05-09T22:28:06.524Z,10.30
2023-05-09T22:30:35.192Z,10.20
2023-05-09T22:33:04.983Z,9.63
2023-05-09T22:35:33.519Z,10.10
2023-05-09T22:38:02.364Z,9.33
2023-05-09T22:40:31.565Z,9.97
2023-05-09T22:42:59.882Z,9.93
2023-05-09T22:45:28.280Z,10.00
2023-05-09T22:47:56.781Z,9.70
2023-05-09T22:50:26.841Z,10.70
2023-05-09T22:52:57.912Z,10.73
2023-05-09T22:55:26.526Z,10.03
2023-05-09T22:57:54.784Z,10.67
2023-05-09T23:00:23.896Z,10.50
2023-05-09T23:02:52.832Z,9.43
2023-05-09T23:05:21.949Z,10.63
2023-05-09T23:07:52.070Z,10.90
2023-05-09T23:10:20.888Z,12.20
2023-05-09T23:12:49.241Z,11.73
2023-05-09T23:15:17.623Z,11.83
2023-05-09T23:17:46.079Z,10.60
2023-05-09T23:20:14.819Z,11.93
2023-05-09T23:22:43.454Z,11.27
2023-05-09T23:25:13.121Z,11.67
2023-05-09T23:27:41.921Z,12.50
2023-05-09T23:30:11.813Z,13.53
2023-05-09T23:32:40.602Z,13.07
2023-05-09T23:35:09.507Z,13.10
2023-05-09T23:37:37.878Z,12.80
2023-05-09T23:40:07.700Z,10.60
2023-05-09T23:42:37.457Z,12.90
2023-05-09T23:45:06.921Z,15.07
2023-05-09T23:47:35.174Z,15.07
2023-05-09T23:50:03.438Z,13.20
2023-05-09T23:52:31.771Z,13.17
2023-05-09T23:55:00.524Z,13.87
2023-05-09T23:57:28.789Z,13.03
2023-05-09T23:59:58.798Z,12.57
